Time;durP1;ratioP1;P1;durP2;ratioP2;P2;SDS_P1;SDS_P2;PMS_P1;PMS_P2;Temp;Humidity;BMP_temperature;BMP_pressure;BME280_temperature;BME280_humidity;BME280_pressure;Samples;Min_cycle;Max_cycle;Signal;HPM_P1;HPM_P2
2022/12/25 00:01:36;;;;;;;8.43;4.83;;;;;;;7.99;100.00;98317.94;5052913;28;20229;-81
2022/12/25 00:04:02;;;;;;;5.93;4.27;;;;;;;8.01;100.00;98309.91;5053230;28;20570;-81
2022/12/25 00:06:29;;;;;;;6.47;4.90;;;;;;;8.04;100.00;98307.13;5053171;28;20208;-80
2022/12/25 00:08:55;;;;;;;7.97;4.83;;;;;;;8.08;100.00;98312.13;5052799;28;20239;-81
2022/12/25 00:11:22;;;;;;;8.33;4.57;;;;;;;8.10;100.00;98314.69;5052856;28;20235;-80
2022/12/25 00:13:50;;;;;;;7.23;4.90;;;;;;;8.11;100.00;98316.38;5052678;28;20263;-80
2022/12/25 00:16:18;;;;;;;7.50;4.77;;;;;;;8.14;100.00;98316.22;5052806;28;20209;-80
2022/12/25 00:18:44;;;;;;;7.37;4.80;;;;;;;8.13;100.00;98320.63;5052631;28;20204;-79
2022/12/25 00:21:12;;;;;;;8.67;5.37;;;;;;;8.15;100.00;98325.81;5052580;28;20228;-81
2022/12/25 00:23:39;;;;;;;8.53;5.60;;;;;;;8.16;100.00;98322.22;5052676;28;20295;-80
2022/12/25 00:26:06;;;;;;;8.13;5.47;;;;;;;8.20;100.00;98315.91;5052499;28;20208;-81
2022/12/25 00:28:33;;;;;;;6.43;4.50;;;;;;;8.19;100.00;98308.88;5052429;28;20295;-81
2022/12/25 00:31:05;;;;;;;6.23;4.67;;;;;;;8.18;100.00;98315.09;5052135;28;20244;-79
2022/12/25 00:33:31;;;;;;;8.23;4.83;;;;;;;8.15;100.00;98310.84;5052227;28;20695;-79
2022/12/25 00:35:59;;;;;;;8.03;4.73;;;;;;;8.18;100.00;98307.19;5052274;28;20212;-79
2022/12/25 00:38:27;;;;;;;6.73;5.40;;;;;;;8.18;100.00;98301.94;5052365;28;20213;-81
2022/12/25 00:40:53;;;;;;;4.83;4.13;;;;;;;8.14;100.00;98306.50;5051720;28;20735;-80
2022/12/25 00:43:20;;;;;;;7.00;5.23;;;;;;;8.12;100.00;98308.41;5052408;28;20208;-80
2022/12/25 00:45:55;;;;;;;6.33;4.97;;;;;;;8.12;100.00;98313.66;5052351;28;20238;-80
2022/12/25 00:48:23;;;;;;;8.60;5.20;;;;;;;8.12;100.00;98308.41;5052497;28;20208;-81
2022/12/25 00:50:53;;;;;;;7.93;5.53;;;;;;;8.12;100.00;98310.16;5052091;28;20628;-81
2022/12/25 00:53:20;;;;;;;9.00;4.63;;;;;;;8.13;100.00;98314.50;5059943;28;20192;-79
2022/12/25 00:55:50;;;;;;;8.30;5.33;;;;;;;8.16;100.00;98309.94;5072573;28;20233;-80
2022/12/25 00:58:17;;;;;;;8.03;5.33;;;;;;;8.16;100.00;98309.06;5072929;28;20216;-81
2022/12/25 01:00:43;;;;;;;7.47;5.10;;;;;;;8.18;100.00;98309.81;5068460;28;20244;-80
2022/12/25 01:03:10;;;;;;;7.20;5.23;;;;;;;8.19;100.00;98303.63;5052770;28;20672;-80
2022/12/25 01:05:38;;;;;;;7.63;5.43;;;;;;;8.21;100.00;98304.44;5053326;28;20231;-80
2022/12/25 01:08:05;;;;;;;10.23;5.80;;;;;;;8.22;100.00;98303.50;5051724;28;20211;-80
2022/12/25 01:10:30;;;;;;;8.53;6.47;;;;;;;8.23;100.00;98305.19;5051832;28;20235;-80
2022/12/25 01:12:57;;;;;;;9.97;6.60;;;;;;;8.25;100.00;98313.84;5052066;28;20213;-80
2022/12/25 01:15:23;;;;;;;9.83;6.77;;;;;;;8.26;100.00;98320.81;5052279;28;20232;-80
2022/12/25 01:17:50;;;;;;;9.40;6.40;;;;;;;8.26;100.00;98313.75;5052213;28;20204;-80
2022/12/25 01:20:17;;;;;;;11.10;6.60;;;;;;;8.30;100.00;98317.06;5051553;28;20597;-80
2022/12/25 01:22:45;;;;;;;11.07;6.83;;;;;;;8.33;100.00;98323.00;5052057;28;20244;-79
2022/12/25 01:25:12;;;;;;;9.83;6.43;;;;;;;8.33;100.00;98316.91;5052164;28;20219;-80
2022/12/25 01:27:41;;;;;;;8.97;5.60;;;;;;;8.32;100.00;98323.09;5051916;28;20205;-80
2022/12/25 01:30:09;;;;;;;7.53;5.40;;;;;;;8.31;100.00;98321.38;5050994;28;20215;-80
2022/12/25 01:32:35;;;;;;;8.33;5.30;;;;;;;8.30;100.00;98317.06;5051701;28;20667;-79
2022/12/25 01:35:02;;;;;;;6.60;5.80;;;;;;;8.34;100.00;98323.84;5051499;28;20225;-80
2022/12/25 01:37:28;;;;;;;8.37;6.10;;;;;;;8.28;100.00;98324.22;5051944;28;20209;-80
2022/12/25 01:39:56;;;;;;;11.57;6.83;;;;;;;8.31;100.00;98340.69;5051285;28;20212;-80
2022/12/25 01:42:23;;;;;;;10.33;6.00;;;;;;;8.34;100.00;98340.47;5051408;28;20209;-80
2022/12/25 01:45:33;;;;;;;6.77;5.70;;;;;;;8.37;100.00;98342.09;5051099;28;20677;-80
2022/12/25 01:48:02;;;;;;;9.50;5.93;;;;;;;8.37;100.00;98344.72;5051117;28;20208;-80
2022/12/25 01:50:29;;;;;;;8.77;6.40;;;;;;;8.38;100.00;98347.28;5050965;28;20232;-80
2022/12/25 01:52:57;;;;;;;7.53;5.60;;;;;;;8.39;100.00;98338.44;5051151;28;20212;-80
2022/12/25 01:55:26;;;;;;;7.90;6.03;;;;;;;8.44;100.00;98338.22;5050992;28;20318;-80
2022/12/25 01:57:53;;;;;;;9.83;5.40;;;;;;;8.49;100.00;98333.50;5051190;28;20255;-80
2022/12/25 02:00:20;;;;;;;6.53;4.50;;;;;;;8.37;100.00;98336.84;5049406;28;20255;-80
2022/12/25 02:02:47;;;;;;;5.30;4.17;;;;;;;8.32;100.00;98331.00;5048861;28;20569;-80
2022/12/25 02:05:18;;;;;;;6.97;4.47;;;;;;;8.32;100.00;98325.75;5051233;28;20215;-80
2022/12/25 02:07:46;;;;;;;5.63;4.63;;;;;;;8.33;100.00;98327.44;5051181;28;20212;-80
2022/12/25 02:10:13;;;;;;;7.10;4.17;;;;;;;8.32;100.00;98326.56;5050625;28;20229;-80
2022/12/25 02:12:43;;;;;;;6.53;4.13;;;;;;;8.35;100.00;98329.03;5050818;28;20212;-80
2022/12/25 02:15:13;;;;;;;4.70;3.70;;;;;;;8.38;100.00;98325.38;5051024;28;20604;-80
2022/12/25 02:17:47;;;;;;;5.07;3.97;;;;;;;8.40;100.00;98324.34;5051090;28;20200;-80
2022/12/25 02:20:32;;;;;;;6.33;3.70;;;;;;;8.35;100.00;98331.69;5054845;28;20227;-80
2022/12/25 02:23:13;;;;;;;5.13;3.43;;;;;;;8.37;100.00;98331.56;5055007;28;20215;-80
2022/12/25 02:25:53;;;;;;;5.27;2.90;;;;;;;8.37;100.00;98328.94;5055155;28;20215;-80
2022/12/25 02:28:28;;;;;;;4.20;3.20;;;;;;;8.39;100.00;98321.81;5054825;28;20208;-80
2022/12/25 02:31:01;;;;;;;5.07;3.33;;;;;;;8.38;100.00;98320.94;5054367;28;20616;-80
2022/12/25 02:36:24;;;;;;;5.07;3.27;;;;;;;8.33;100.00;98316.91;5054988;28;20251;-80
2022/12/25 02:41:45;;;;;;;4.90;3.37;;;;;;;8.39;100.00;98319.19;5054604;28;20685;-80
2022/12/25 03:06:45;;;;;;;6.30;3.63;;;;;;;8.26;100.00;98320.81;5054008;28;20210;-80
2022/12/25 03:12:08;;;;;;;4.43;3.83;;;;;;;8.24;100.00;98301.59;5053843;28;20313;-79
2022/12/25 03:17:20;;;;;;;6.13;4.20;;;;;;;8.23;100.00;98305.19;5054197;28;20195;-79
2022/12/25 03:28:02;;;;;;;8.00;6.00;;;;;;;8.21;100.00;98291.28;5073354;28;20192;-79
2022/12/25 03:33:31;;;;;;;9.83;7.80;;;;;;;8.30;100.00;98285.47;5054678;28;20285;-79
2022/12/25 03:36:02;;;;;;;10.77;7.70;;;;;;;8.20;100.00;98279.03;5054078;28;20227;-79
2022/12/25 04:37:00;;;;;;;6.77;5.30;;;;;;;7.98;100.00;98231.16;5052305;28;20267;-79
2022/12/25 04:39:28;;;;;;;7.63;5.50;;;;;;;7.95;100.00;98237.44;5051932;28;20215;-78
2022/12/25 04:41:54;;;;;;;9.23;5.30;;;;;;;7.96;100.00;98228.59;5050984;28;20716;-79
2022/12/25 04:44:21;;;;;;;9.93;6.50;;;;;;;7.97;100.00;98235.56;5052429;28;20208;-78
2022/12/25 04:46:47;;;;;;;8.23;5.43;;;;;;;7.98;100.00;98246.94;5051982;28;20233;-78
2022/12/25 04:49:14;;;;;;;10.93;6.27;;;;;;;8.04;100.00;98241.34;5052126;28;20215;-79
2022/12/25 04:51:40;;;;;;;10.87;6.63;;;;;;;8.02;100.00;98237.94;5051874;28;20224;-79
2022/12/25 04:54:06;;;;;;;7.77;5.80;;;;;;;8.05;100.00;98224.59;5052018;28;20216;-79
2022/12/25 04:56:34;;;;;;;8.43;6.30;;;;;;;8.03;100.00;98229.13;5052233;28;20232;-79
2022/12/25 04:59:01;;;;;;;7.27;5.23;;;;;;;8.00;100.00;98235.41;5051955;28;20212;-79
2022/12/25 05:01:27;;;;;;;7.50;5.83;;;;;;;8.01;100.00;98215.16;5051920;28;20231;-78
2022/12/25 05:03:54;;;;;;;8.33;5.43;;;;;;;8.03;100.00;98223.84;5052115;28;20212;-79
2022/12/25 05:06:20;;;;;;;6.63;5.63;;;;;;;8.04;100.00;98222.91;5052145;28;20204;-79
2022/12/25 05:08:47;;;;;;;8.83;5.90;;;;;;;8.08;100.00;98216.53;5051537;28;20215;-78
2022/12/25 05:11:15;;;;;;;9.07;5.47;;;;;;;8.08;100.00;98211.28;5051734;28;20626;-79
2022/12/25 05:13:43;;;;;;;8.10;5.70;;;;;;;8.07;100.00;98204.28;5051639;28;20698;-79
2022/12/25 05:16:13;;;;;;;8.23;6.40;;;;;;;8.07;100.00;98199.88;5052190;28;20324;-79
2022/12/25 05:18:40;;;;;;;8.73;5.73;;;;;;;8.12;100.00;98202.25;5051828;28;20215;-79
2022/12/25 05:21:07;;;;;;;7.67;6.00;;;;;;;8.09;100.00;98197.16;5051478;28;20239;-79
2022/12/25 05:23:34;;;;;;;9.23;5.30;;;;;;;8.06;100.00;98202.59;5051746;28;20210;-79
2022/12/25 05:26:04;;;;;;;6.77;5.20;;;;;;;8.04;100.00;98215.00;5052130;28;20204;-79
2022/12/25 05:28:31;;;;;;;7.83;5.30;;;;;;;8.05;100.00;98200.91;5052256;28;20214;-79
2022/12/25 05:30:58;;;;;;;6.10;5.50;;;;;;;8.09;100.00;98208.53;5076445;22;20500;-80
2022/12/25 05:33:25;;;;;;;8.57;5.20;;;;;;;8.07;100.00;98214.81;5091495;28;20202;-79
2022/12/25 05:35:51;;;;;;;7.20;5.07;;;;;;;8.11;100.00;98206.69;5091526;28;20635;-80
2022/12/25 05:38:18;;;;;;;7.17;4.87;;;;;;;8.13;100.00;98206.56;5091459;28;20207;-80
2022/12/25 05:40:44;;;;;;;6.97;4.70;;;;;;;8.09;100.00;98203.25;5090998;28;20237;-80
2022/12/25 05:43:11;;;;;;;7.43;5.37;;;;;;;8.13;100.00;98203.94;5091539;28;20214;-80
2022/12/25 05:45:37;;;;;;;6.10;4.70;;;;;;;8.13;100.00;98204.78;5091517;28;20203;-80
2022/12/25 05:48:06;;;;;;;6.13;4.30;;;;;;;8.13;100.00;98198.66;5091271;28;20210;-81
2022/12/25 05:50:32;;;;;;;6.40;4.77;;;;;;;8.15;100.00;98186.28;5091067;28;20217;-80
2022/12/25 05:52:59;;;;;;;5.80;4.37;;;;;;;8.15;100.00;98176.59;5091353;28;20248;-79
2022/12/25 05:55:25;;;;;;;6.83;3.77;;;;;;;8.14;100.00;98174.06;5091580;28;20226;-80
2022/12/25 05:57:52;;;;;;;7.07;4.87;;;;;;;8.13;100.00;98173.19;5091195;28;20690;-81
2022/12/25 06:00:19;;;;;;;7.53;4.73;;;;;;;8.17;100.00;98184.41;5090964;28;20214;-79
2022/12/25 06:02:46;;;;;;;6.70;4.70;;;;;;;8.15;100.00;98170.50;5091139;28;20214;-81
2022/12/25 06:05:14;;;;;;;6.43;4.57;;;;;;;8.14;100.00;98174.06;5091216;28;20633;-81
2022/12/25 06:07:40;;;;;;;5.73;4.20;;;;;;;8.16;100.00;98164.28;5091694;28;20203;-81
2022/12/25 06:10:08;;;;;;;4.80;4.20;;;;;;;8.16;100.00;98169.53;5090697;28;20211;-81
2022/12/25 06:12:34;;;;;;;5.43;4.03;;;;;;;8.11;100.00;98164.56;5091121;28;20247;-81
2022/12/25 06:15:01;;;;;;;5.90;4.23;;;;;;;8.11;100.00;98169.81;5091099;28;20289;-80
2022/12/25 06:17:27;;;;;;;5.60;4.20;;;;;;;8.10;100.00;98169.91;5090971;28;20692;-81
2022/12/25 06:19:54;;;;;;;6.80;4.60;;;;;;;8.10;100.00;98172.53;5091218;28;20548;-82
2022/12/25 06:22:22;;;;;;;7.00;4.90;;;;;;;8.09;100.00;98161.16;5090845;28;20308;-81
2022/12/25 06:24:48;;;;;;;6.63;5.57;;;;;;;8.09;100.00;98160.31;5090806;28;20209;-80
2022/12/25 06:27:15;;;;;;;7.30;5.57;;;;;;;8.09;100.00;98157.69;5090899;28;20209;-81
2022/12/25 06:29:42;;;;;;;7.63;4.87;;;;;;;8.10;100.00;98151.47;5090692;28;20203;-81
2022/12/25 06:32:08;;;;;;;5.77;4.53;;;;;;;8.11;100.00;98153.16;5090639;28;20243;-82
2022/12/25 06:34:35;;;;;;;7.47;4.60;;;;;;;8.12;100.00;98149.59;5090693;28;20213;-81
2022/12/25 06:37:01;;;;;;;8.20;5.40;;;;;;;8.10;100.00;98151.47;5091159;28;20647;-81
2022/12/25 06:39:29;;;;;;;6.33;4.87;;;;;;;8.10;100.00;98154.13;5090922;28;20215;-82
2022/12/25 06:41:55;;;;;;;6.67;5.00;;;;;;;8.15;100.00;98154.69;5090933;28;20226;-82
2022/12/25 06:44:22;;;;;;;6.87;4.20;;;;;;;8.14;100.00;98163.53;5090864;28;20206;-82
2022/12/25 06:46:49;;;;;;;6.10;4.60;;;;;;;8.18;100.00;98163.25;5090714;28;20203;-80
2022/12/25 06:49:15;;;;;;;4.93;3.90;;;;;;;8.18;100.00;98157.13;5090448;28;20591;-82
2022/12/25 06:51:42;;;;;;;6.90;4.70;;;;;;;8.20;100.00;98163.22;5090445;28;20231;-81
2022/12/25 06:54:08;;;;;;;5.37;4.10;;;;;;;8.20;100.00;98171.94;5090815;28;20214;-80
2022/12/25 06:56:37;;;;;;;5.47;4.30;;;;;;;8.22;100.00;98166.59;5090520;28;20227;-82
2022/12/25 06:59:06;;;;;;;5.97;4.40;;;;;;;8.20;100.00;98168.47;5090374;28;20302;-80
2022/12/25 07:01:35;;;;;;;4.93;3.43;;;;;;;8.20;100.00;98181.63;5090488;28;20232;-81
2022/12/25 07:04:03;;;;;;;5.23;3.93;;;;;;;8.19;100.00;98167.59;5090621;28;20219;-83
2022/12/25 07:06:30;;;;;;;5.20;4.20;;;;;;;8.17;100.00;98173.88;5093053;28;20211;-81
2022/12/25 07:08:57;;;;;;;5.47;4.23;;;;;;;8.12;100.00;98166.25;5094064;28;20202;-81
2022/12/25 07:11:25;;;;;;;6.07;4.13;;;;;;;8.11;100.00;98179.50;5093992;28;20236;-82
2022/12/25 07:13:53;;;;;;;5.43;4.43;;;;;;;8.12;100.00;98175.91;5094211;28;20214;-81
2022/12/25 07:16:20;;;;;;;6.37;4.13;;;;;;;8.16;100.00;98187.97;5094000;28;20276;-80
2022/12/25 07:18:47;;;;;;;4.70;4.20;;;;;;;8.21;100.00;98185.97;5093662;28;20213;-80
2022/12/25 07:21:16;;;;;;;4.57;3.70;;;;;;;8.20;100.00;98179.00;5093926;28;20258;-82
2022/12/25 07:23:46;;;;;;;4.77;3.43;;;;;;;8.23;100.00;98177.03;5094027;28;20207;-82
2022/12/25 07:26:13;;;;;;;4.77;3.50;;;;;;;8.23;100.00;98168.28;5093976;28;20203;-82
2022/12/25 07:28:40;;;;;;;3.47;3.07;;;;;;;8.25;100.00;98161.97;5093710;28;20213;-82
2022/12/25 07:31:11;;;;;;;4.37;3.60;;;;;;;8.25;100.00;98171.66;5093271;28;20239;-82
2022/12/25 07:33:37;;;;;;;4.77;3.87;;;;;;;8.23;100.00;98168.28;5093553;28;20215;-82
2022/12/25 07:36:05;;;;;;;4.70;3.87;;;;;;;8.23;100.00;98158.59;5093749;28;20249;-82
2022/12/25 07:38:32;;;;;;;5.20;3.80;;;;;;;8.24;100.00;98154.16;5093552;28;20218;-82
2022/12/25 07:40:58;;;;;;;6.20;4.03;;;;;;;8.22;100.00;98149.00;5093319;28;20638;-82
2022/12/25 07:43:25;;;;;;;6.80;4.80;;;;;;;8.23;100.00;98140.19;5093619;28;20211;-82
2022/12/25 07:45:54;;;;;;;6.67;5.20;;;;;;;8.26;100.00;98133.88;5093428;28;20210;-82
2022/12/25 07:48:22;;;;;;;6.97;5.40;;;;;;;8.18;100.00;98138.69;5093655;28;20215;-82
2022/12/25 07:50:56;;;;;;;6.13;4.83;;;;;;;8.15;100.00;98133.63;5093180;28;20263;-82
2022/12/25 07:53:23;;;;;;;6.73;4.90;;;;;;;8.16;100.00;98136.19;5093328;28;20206;-82
2022/12/25 07:55:56;;;;;;;8.03;5.73;;;;;;;8.17;100.00;98135.25;5093326;28;20230;-82
2022/12/25 07:58:22;;;;;;;5.70;5.10;;;;;;;8.14;100.00;98138.03;5093236;28;20207;-82
2022/12/25 08:00:49;;;;;;;7.07;5.50;;;;;;;8.15;100.00;98136.28;5092960;28;20229;-82
2022/12/25 08:03:15;;;;;;;7.07;5.70;;;;;;;8.15;100.00;98129.19;5093190;28;20218;-82
2022/12/25 08:05:43;;;;;;;8.57;5.63;;;;;;;8.14;100.00;98139.84;5093205;28;20211;-82
2022/12/25 08:08:09;;;;;;;8.90;5.73;;;;;;;8.16;100.00;98140.59;5093061;28;20215;-78
2022/12/25 08:10:37;;;;;;;6.00;5.00;;;;;;;8.14;100.00;98153.00;5092702;28;20230;-78
2022/12/25 08:13:03;;;;;;;8.13;6.60;;;;;;;8.13;100.00;98156.53;5092781;28;20207;-84
2022/12/25 08:15:30;;;;;;;6.87;5.27;;;;;;;8.17;100.00;98164.19;5092760;28;20678;-80
2022/12/25 08:17:57;;;;;;;9.13;5.30;;;;;;;8.21;100.00;98160.47;5092838;28;20205;-81
2022/12/25 08:20:23;;;;;;;6.73;5.07;;;;;;;8.19;100.00;98153.56;5093190;28;20218;-82
2022/12/25 08:22:51;;;;;;;5.63;4.67;;;;;;;8.15;100.00;98165.22;5092740;28;20591;-80
2022/12/25 08:25:17;;;;;;;6.60;5.23;;;;;;;8.16;100.00;98172.19;5092669;28;20203;-82
2022/12/25 08:27:44;;;;;;;7.30;5.50;;;;;;;8.15;100.00;98173.13;5092847;28;20211;-81
2022/12/25 08:30:11;;;;;;;7.03;5.30;;;;;;;8.13;100.00;98162.69;5092413;28;20206;-82
2022/12/25 08:32:37;;;;;;;6.63;5.50;;;;;;;8.13;100.00;98172.34;5092266;28;20352;-85
2022/12/25 08:35:05;;;;;;;8.13;5.67;;;;;;;8.15;100.00;98159.97;5092382;28;20678;-83
2022/12/25 08:37:32;;;;;;;7.97;5.60;;;;;;;8.21;100.00;98157.00;5092537;28;20761;-85
2022/12/25 08:40:00;;;;;;;8.23;6.20;;;;;;;8.27;100.00;98164.53;5092076;28;20203;-83
2022/12/25 08:42:26;;;;;;;5.73;5.10;;;;;;;8.31;100.00;98155.50;5092301;28;20232;-85
2022/12/25 08:44:53;;;;;;;7.17;5.27;;;;;;;8.37;100.00;98160.38;5092631;28;20206;-83
2022/12/25 08:47:20;;;;;;;8.27;5.80;;;;;;;8.46;100.00;98157.22;5092521;28;20211;-83
2022/12/25 08:49:46;;;;;;;6.60;5.53;;;;;;;8.51;100.00;98163.06;5092100;28;20202;-83
2022/12/25 08:52:13;;;;;;;8.13;6.23;;;;;;;8.56;100.00;98155.75;5092212;28;20240;-83
2022/12/25 08:54:39;;;;;;;8.43;5.53;;;;;;;8.53;100.00;98158.53;5092077;28;20588;-81
2022/12/25 08:57:07;;;;;;;7.20;6.13;;;;;;;8.55;100.00;98154.00;5091123;28;20452;-81
2022/12/25 08:59:34;;;;;;;6.70;5.43;;;;;;;8.47;100.00;98157.13;5092229;28;20446;-83
2022/12/25 09:02:00;;;;;;;6.23;5.13;;;;;;;8.37;100.00;98149.84;5091999;28;20226;-80
2022/12/25 09:04:27;;;;;;;9.40;6.43;;;;;;;8.40;100.00;98149.69;5092078;28;20203;-80
2022/12/25 09:06:53;;;;;;;6.47;4.93;;;;;;;8.28;100.00;98135.50;5091920;28;20307;-80
2022/12/25 09:09:20;;;;;;;8.67;5.87;;;;;;;8.27;100.00;98127.66;5091521;28;20214;-79
2022/12/25 09:11:46;;;;;;;9.97;7.20;;;;;;;8.31;100.00;98110.72;5091873;28;20235;-81
2022/12/25 09:14:14;;;;;;;9.23;7.80;;;;;;;8.38;100.00;98105.00;5092201;28;20217;-82
2022/12/25 09:16:40;;;;;;;10.43;7.53;;;;;;;8.48;100.00;98100.88;5092020;28;20232;-81
2022/12/25 09:19:07;;;;;;;9.70;7.20;;;;;;;8.55;100.00;98111.88;5091714;28;20214;-81
2022/12/25 09:21:35;;;;;;;8.37;7.17;;;;;;;8.65;100.00;98116.50;5090040;28;20234;-79
2022/12/25 09:24:02;;;;;;;9.33;6.63;;;;;;;8.58;100.00;98116.97;5090328;28;20211;-80
2022/12/25 09:26:28;;;;;;;7.83;5.77;;;;;;;8.58;100.00;98122.22;5091399;28;20696;-81
2022/12/25 09:28:55;;;;;;;9.57;6.87;;;;;;;8.52;100.00;98122.59;5089312;28;20209;-80
2022/12/25 09:31:23;;;;;;;7.10;5.47;;;;;;;8.50;100.00;98132.41;5091411;28;20293;-78
2022/12/25 09:33:50;;;;;;;8.55;7.38;;;;;;;8.57;100.00;98125.81;5090698;28;20443;-80
2022/12/25 09:36:17;;;;;;;7.70;6.73;;;;;;;8.60;100.00;98120.34;5091102;28;20702;-81
2022/12/25 09:38:44;;;;;;;11.10;7.20;;;;;;;8.62;100.00;98132.47;5090915;28;20208;-84
2022/12/25 09:41:16;;;;;;;10.93;7.70;;;;;;;8.61;100.00;98122.91;5091133;28;20238;-82
2022/12/25 09:43:54;;;;;;;8.17;6.63;;;;;;;8.61;100.00;98124.66;5091429;28;20683;-80
2022/12/25 09:46:26;;;;;;;7.63;5.93;;;;;;;8.64;100.00;98120.06;5091359;28;20209;-79
2022/12/25 09:49:02;;;;;;;8.57;5.93;;;;;;;8.67;100.00;98122.50;5091126;28;20211;-80
2022/12/25 09:51:33;;;;;;;9.33;7.03;;;;;;;8.72;100.00;98132.75;5091168;28;20228;-79
2022/12/25 09:54:04;;;;;;;9.37;6.40;;;;;;;8.76;100.00;98136.91;5091491;28;20584;-79
2022/12/25 09:56:32;;;;;;;7.83;6.10;;;;;;;8.81;100.00;98121.66;5091124;28;20229;-80
2022/12/25 09:58:58;;;;;;;9.03;5.73;;;;;;;8.87;100.00;98126.56;5090939;28;20218;-80
2022/12/25 10:01:34;;;;;;;9.23;7.23;;;;;;;8.97;100.00;98125.00;5090726;28;20241;-82
2022/12/25 10:04:17;;;;;;;7.43;4.43;;;;;;;9.01;100.00;98131.81;5091419;28;20206;-79
2022/12/25 10:06:59;;;;;;;6.23;4.50;;;;;;;9.05;100.00;98128.88;5089547;28;20244;-81
2022/12/25 10:09:37;;;;;;;6.93;5.63;;;;;;;9.24;100.00;98120.66;5088421;28;20594;-79
2022/12/25 10:12:25;;;;;;;8.30;5.73;;;;;;;9.37;100.00;98119.75;5090381;28;20223;-82
2022/12/25 10:15:05;;;;;;;7.63;5.87;;;;;;;9.54;100.00;98111.59;5089535;28;20205;-82
2022/12/25 10:17:58;;;;;;;5.03;4.50;;;;;;;9.85;100.00;98105.16;5089262;28;20596;-82
2022/12/25 10:20:36;;;;;;;4.43;3.70;;;;;;;9.94;100.00;98104.50;5089696;28;20671;-82
2022/12/25 10:23:09;;;;;;;4.53;3.50;;;;;;;10.01;100.00;98100.50;5089742;28;20229;-82
2022/12/25 10:25:38;;;;;;;4.23;3.77;;;;;;;9.96;100.00;98098.19;5089695;28;20206;-82
2022/12/25 10:28:13;;;;;;;5.90;4.37;;;;;;;10.19;100.00;98092.25;5091808;28;20236;-81
2022/12/25 10:30:42;;;;;;;4.80;3.60;;;;;;;10.28;100.00;98102.16;5090114;28;20230;-82
2022/12/25 10:33:12;;;;;;;4.33;3.80;;;;;;;10.36;100.00;98097.22;5089336;28;20678;-82
2022/12/25 10:35:39;;;;;;;4.60;3.40;;;;;;;10.39;100.00;98101.44;5091457;28;20208;-81
2022/12/25 10:38:12;;;;;;;5.20;3.67;;;;;;;10.40;100.00;98087.28;5090537;28;20238;-82
2022/12/25 10:40:53;;;;;;;5.57;4.03;;;;;;;10.48;100.00;98082.31;5091144;28;20229;-82
2022/12/25 10:43:26;;;;;;;4.23;3.60;;;;;;;10.50;100.00;98080.38;5094932;28;20207;-82
2022/12/25 10:45:52;;;;;;;4.87;3.63;;;;;;;10.53;100.00;98074.91;5094271;28;20212;-80
2022/12/25 10:48:25;;;;;;;4.97;3.90;;;;;;;10.66;100.00;98067.81;5091247;28;20432;-76
2022/12/25 10:50:52;;;;;;;4.47;3.90;;;;;;;10.74;100.00;98060.16;5094035;28;20245;-83
2022/12/25 10:53:21;;;;;;;4.37;3.63;;;;;;;10.76;100.00;98061.75;5094418;28;20209;-81
2022/12/25 10:55:59;;;;;;;4.73;3.80;;;;;;;10.87;100.00;98050.41;5092119;28;20311;-82
2022/12/25 10:58:26;;;;;;;4.57;3.70;;;;;;;10.99;100.00;98049.53;5093768;28;20226;-81
2022/12/25 11:00:55;;;;;;;4.93;3.23;;;;;;;11.09;100.00;98045.28;5094103;28;20229;-76
2022/12/25 11:03:26;;;;;;;5.80;3.40;;;;;;;11.21;100.00;98041.72;5094359;28;20198;-77
2022/12/25 11:05:53;;;;;;;2.80;2.60;;;;;;;11.26;100.00;98034.31;5094190;28;20205;-77
2022/12/25 11:08:22;;;;;;;3.97;2.57;;;;;;;11.28;100.00;98029.75;5092410;28;20710;-80
2022/12/25 11:10:55;;;;;;;4.40;2.87;;;;;;;11.31;100.00;98029.53;5092435;28;20245;-80
2022/12/25 11:13:24;;;;;;;3.27;2.73;;;;;;;11.29;100.00;98029.63;5094254;28;20210;-79
2022/12/25 11:16:02;;;;;;;3.17;2.80;;;;;;;11.47;100.00;98020.34;5090008;28;20203;-78
2022/12/25 11:18:34;;;;;;;3.30;2.63;;;;;;;11.54;100.00;98029.50;5082587;28;20279;-80
2022/12/25 11:21:03;;;;;;;2.93;2.60;;;;;;;11.47;100.00;98030.06;5073045;28;20235;-79
2022/12/25 11:23:32;;;;;;;3.27;2.80;;;;;;;11.51;100.00;98026.25;5073463;28;20209;-79
2022/12/25 11:26:01;;;;;;;4.83;2.70;;;;;;;11.42;100.00;98026.91;5088436;28;20199;-79
2022/12/25 11:28:30;;;;;;;2.50;2.10;;;;;;;11.29;100.00;98026.13;5093561;28;20291;-79
2022/12/25 11:31:01;;;;;;;3.60;2.90;;;;;;;11.42;100.00;98026.91;5093595;28;20239;-80
2022/12/25 11:33:42;;;;;;;3.00;2.43;;;;;;;11.52;100.00;98014.69;5088931;28;20257;-81
2022/12/25 11:36:17;;;;;;;2.70;2.13;;;;;;;11.65;100.00;98008.41;5073354;28;20760;-78
2022/12/25 11:38:43;;;;;;;3.73;2.50;;;;;;;11.77;100.00;98011.91;5073063;28;20232;-82
2022/12/25 11:41:12;;;;;;;2.40;2.20;;;;;;;11.73;100.00;98002.53;5072699;28;20311;-83
2022/12/25 11:43:46;;;;;;;3.13;2.50;;;;;;;11.73;100.00;98000.72;5072988;28;20277;-81
2022/12/25 11:46:22;;;;;;;2.50;2.30;;;;;;;11.74;100.00;98001.56;5073293;28;20208;-84
2022/12/25 11:48:55;;;;;;;3.03;2.17;;;;;;;11.97;100.00;97995.34;5088259;22;20728;-87
2022/12/25 11:51:24;;;;;;;3.03;2.30;;;;;;;12.02;100.00;97995.84;5072566;28;20747;-84
2022/12/25 11:53:52;;;;;;;4.73;2.60;;;;;;;12.06;100.00;97994.66;5073097;28;20239;-86
2022/12/25 11:56:23;;;;;;;2.93;2.33;;;;;;;12.20;100.00;97989.13;5072899;28;20214;-86
2022/12/25 11:58:52;;;;;;;3.63;2.80;;;;;;;12.34;100.00;97978.31;5079888;28;20259;-86
2022/12/25 12:01:29;;;;;;;3.53;2.33;;;;;;;12.46;100.00;97977.34;5072721;28;20217;-81
2022/12/25 12:03:59;;;;;;;3.23;2.40;;;;;;;12.56;100.00;97965.88;5067444;28;20220;-79
2022/12/25 12:06:30;;;;;;;2.77;2.30;;;;;;;12.72;100.00;97965.50;5052758;28;20335;-84
2022/12/25 12:09:04;;;;;;;3.07;2.63;;;;;;;12.78;100.00;97943.78;5052348;28;20724;-80
2022/12/25 12:11:39;;;;;;;3.20;2.60;;;;;;;12.89;100.00;97941.13;5053033;28;20841;-75
2022/12/25 12:14:20;;;;;;;4.30;2.50;;;;;;;12.95;100.00;97920.25;5052896;28;20587;-82
2022/12/25 12:16:46;;;;;;;3.90;2.40;;;;;;;13.01;100.00;97913.63;5053122;28;20221;-86
2022/12/25 12:19:25;;;;;;;3.77;2.40;;;;;;;13.03;100.00;97912.50;5052270;28;20335;-82
2022/12/25 12:21:55;;;;;;;4.23;2.60;;;;;;;13.11;100.00;97909.22;5052817;28;20204;-82
2022/12/25 12:24:24;;;;;;;3.70;2.20;;;;;;;13.15;100.00;97905.34;5052778;28;20214;-84
2022/12/25 12:27:01;;;;;;;3.60;2.00;;;;;;;13.16;100.00;97901.72;5052747;28;20223;-85
2022/12/25 12:29:31;;;;;;;4.40;2.10;;;;;;;13.18;100.00;97894.47;5052274;28;20262;-84
2022/12/25 12:32:01;;;;;;;2.47;2.20;;;;;;;13.20;100.00;97898.69;5053090;28;20210;-85
2022/12/25 12:34:35;;;;;;;2.40;2.00;;;;;;;13.17;100.00;97896.28;5053245;28;20213;-85
2022/12/25 12:37:06;;;;;;;3.03;2.10;;;;;;;12.99;100.00;97902.25;5053006;28;20219;-83
2022/12/25 12:39:36;;;;;;;3.77;1.90;;;;;;;12.78;100.00;97917.25;5052658;28;20231;-77
2022/12/25 12:42:13;;;;;;;2.30;2.03;;;;;;;12.59;100.00;97927.69;5056183;28;20266;-88
2022/12/25 12:44:40;;;;;;;2.30;1.80;;;;;;;12.43;100.00;97921.91;5067919;28;20209;-84
2022/12/25 12:47:28;;;;;;;2.30;2.10;;;;;;;12.30;100.00;97931.78;5064377;28;20217;-86
2022/12/25 12:49:58;;;;;;;2.43;2.23;;;;;;;12.24;100.00;97937.59;5053498;28;20610;-84
2022/12/25 12:52:30;;;;;;;2.83;2.33;;;;;;;12.16;100.00;97935.53;5056324;28;20214;-85
2022/12/25 12:55:00;;;;;;;2.90;2.50;;;;;;;12.34;100.00;97938.56;5055358;28;20213;-85
2022/12/25 12:57:31;;;;;;;2.93;2.73;;;;;;;12.46;100.00;97929.63;5060192;28;20243;-82
2022/12/25 13:00:00;;;;;;;2.97;2.67;;;;;;;12.57;100.00;97914.53;5054619;28;20726;-81
2022/12/25 13:02:46;;;;;;;2.80;2.50;;;;;;;12.65;100.00;97911.28;5051702;28;20872;-84
2022/12/25 13:05:22;;;;;;;3.40;3.00;;;;;;;12.66;100.00;97907.66;5052921;28;20223;-82
2022/12/25 13:07:58;;;;;;;3.93;3.23;;;;;;;12.67;100.00;97899.59;5064471;28;20210;-83
2022/12/25 13:10:31;;;;;;;3.43;2.87;;;;;;;12.64;100.00;97898.97;5057232;28;20224;-84
2022/12/25 13:13:00;;;;;;;3.80;3.17;;;;;;;12.68;100.00;97892.44;5076313;28;20195;-78
2022/12/25 13:15:30;;;;;;;3.50;3.20;;;;;;;12.65;100.00;97884.75;5077132;28;20219;-77
2022/12/25 13:18:03;;;;;;;3.47;3.03;;;;;;;12.47;100.00;97896.84;5077133;28;20214;-80
2022/12/25 13:20:43;;;;;;;3.80;3.33;;;;;;;12.48;100.00;97898.53;5076748;28;20206;-81
2022/12/25 13:23:25;;;;;;;3.40;3.00;;;;;;;12.54;100.00;97887.44;5077139;28;20201;-81
2022/12/25 13:25:53;;;;;;;3.23;2.70;;;;;;;12.59;100.00;97885.25;5071562;28;20197;-81